sensor_id;sensor_type;location;lat;lon;timestamp;pressure;altitude;pressure_sealevel;temperature;humidity
14882;BME280;7533;51.278;12.588;2023-04-06T00:04:05;100560.19;;;21.68;59.91
14882;BME280;7533;51.278;12.588;2023-04-06T00:09:08;100566.72;;;21.64;60.30
14882;BME280;7533;51.278;12.588;2023-04-06T00:14:11;100562.50;;;21.60;60.55
14882;BME280;7533;51.278;12.588;2023-04-06T00:19:16;100569.16;;;21.54;60.57
14882;BME280;7533;51.278;12.588;2023-04-06T00:24:19;100558.72;;;21.50;60.76
14882;BME280;7533;51.278;12.588;2023-04-06T00:29:22;100552.75;;;21.45;60.93
14882;BME280;7533;51.278;12.588;2023-04-06T00:34:26;100558.31;;;21.42;61.10
14882;BME280;7533;51.278;12.588;2023-04-06T00:39:29;100554.00;;;21.39;61.55
14882;BME280;7533;51.278;12.588;2023-04-06T00:44:32;100565.81;;;21.36;61.61
14882;BME280;7533;51.278;12.588;2023-04-06T00:49:36;100556.88;;;21.36;61.88
14882;BME280;7533;51.278;12.588;2023-04-06T00:54:39;100551.91;;;21.30;61.84
14882;BME280;7533;51.278;12.588;2023-04-06T00:59:44;100553.81;;;21.28;61.75
14882;BME280;7533;51.278;12.588;2023-04-06T01:04:49;100548.72;;;21.23;61.86
14882;BME280;7533;51.278;12.588;2023-04-06T01:09:59;100542.66;;;21.20;61.88
14882;BME280;7533;51.278;12.588;2023-04-06T01:15:04;100549.09;;;21.17;62.11
14882;BME280;7533;51.278;12.588;2023-04-06T01:20:11;100543.81;;;21.16;62.07
14882;BME280;7533;51.278;12.588;2023-04-06T01:25:15;100544.97;;;21.11;62.23
14882;BME280;7533;51.278;12.588;2023-04-06T01:30:35;100532.56;;;21.09;62.32
14882;BME280;7533;51.278;12.588;2023-04-06T01:35:45;100540.00;;;21.05;62.51
14882;BME280;7533;51.278;12.588;2023-04-06T01:40:53;100531.13;;;21.03;62.77
14882;BME280;7533;51.278;12.588;2023-04-06T01:45:59;100525.84;;;21.02;62.94
14882;BME280;7533;51.278;12.588;2023-04-06T01:51:07;100525.09;;;21.00;63.13
14882;BME280;7533;51.278;12.588;2023-04-06T01:56:20;100532.78;;;20.92;63.39
14882;BME280;7533;51.278;12.588;2023-04-06T02:01:35;100521.72;;;20.96;63.28
14882;BME280;7533;51.278;12.588;2023-04-06T02:06:38;100514.81;;;20.92;63.22
14882;BME280;7533;51.278;12.588;2023-04-06T02:11:45;100514.81;;;20.92;63.45
14882;BME280;7533;51.278;12.588;2023-04-06T02:16:48;100509.63;;;20.89;63.50
14882;BME280;7533;51.278;12.588;2023-04-06T02:21:51;100509.75;;;20.88;63.61
14882;BME280;7533;51.278;12.588;2023-04-06T02:26:55;100503.56;;;20.85;63.71
14882;BME280;7533;51.278;12.588;2023-04-06T02:31:58;100508.28;;;20.82;63.82
14882;BME280;7533;51.278;12.588;2023-04-06T02:37:03;100509.22;;;20.81;63.96
14882;BME280;7533;51.278;12.588;2023-04-06T02:42:07;100507.50;;;20.80;64.03
14882;BME280;7533;51.278;12.588;2023-04-06T02:47:11;100504.06;;;20.78;64.07
14882;BME280;7533;51.278;12.588;2023-04-06T02:52:18;100505.97;;;20.76;64.23
14882;BME280;7533;51.278;12.588;2023-04-06T02:57:22;100510.59;;;20.74;64.30
14882;BME280;7533;51.278;12.588;2023-04-06T03:02:26;100505.41;;;20.71;64.25
14882;BME280;7533;51.278;12.588;2023-04-06T03:07:38;100506.34;;;20.70;64.60
14882;BME280;7533;51.278;12.588;2023-04-06T03:12:47;100507.41;;;20.67;64.69
14882;BME280;7533;51.278;12.588;2023-04-06T03:17:59;100513.78;;;20.66;64.76
14882;BME280;7533;51.278;12.588;2023-04-06T03:23:18;100521.03;;;20.64;64.96
14882;BME280;7533;51.278;12.588;2023-04-06T03:28:28;100505.00;;;20.63;65.11
14882;BME280;7533;51.278;12.588;2023-04-06T03:33:34;100511.34;;;20.62;65.28
14882;BME280;7533;51.278;12.588;2023-04-06T03:38:37;100502.44;;;20.61;65.48
14882;BME280;7533;51.278;12.588;2023-04-06T03:43:47;100509.72;;;20.59;65.44
14882;BME280;7533;51.278;12.588;2023-04-06T03:48:51;100515.09;;;20.59;65.55
14882;BME280;7533;51.278;12.588;2023-04-06T03:53:57;100518.84;;;20.56;65.54
14882;BME280;7533;51.278;12.588;2023-04-06T03:59:01;100531.44;;;20.56;65.52
14882;BME280;7533;51.278;12.588;2023-04-06T04:04:05;100526.16;;;20.54;65.72
14882;BME280;7533;51.278;12.588;2023-04-06T04:09:08;100528.06;;;20.52;65.66
14882;BME280;7533;51.278;12.588;2023-04-06T04:14:12;100531.59;;;20.53;65.74
14882;BME280;7533;51.278;12.588;2023-04-06T04:19:15;100529.13;;;20.50;66.03
14882;BME280;7533;51.278;12.588;2023-04-06T04:24:18;100532.78;;;20.49;65.92
14882;BME280;7533;51.278;12.588;2023-04-06T04:29:23;100526.59;;;20.47;66.02
14882;BME280;7533;51.278;12.588;2023-04-06T04:34:28;100531.97;;;20.47;66.12
14882;BME280;7533;51.278;12.588;2023-04-06T04:39:31;100529.38;;;20.45;66.16
14882;BME280;7533;51.278;12.588;2023-04-06T04:44:40;100538.56;;;20.41;66.36
14882;BME280;7533;51.278;12.588;2023-04-06T04:49:43;100550.28;;;20.40;65.98
14882;BME280;7533;51.278;12.588;2023-04-06T04:54:51;100544.03;;;20.40;65.61
14882;BME280;7533;51.278;12.588;2023-04-06T05:00:01;100552.28;;;20.37;65.25
14882;BME280;7533;51.278;12.588;2023-04-06T05:05:06;100547.00;;;20.35;65.08
14882;BME280;7533;51.278;12.588;2023-04-06T05:10:10;100543.44;;;20.34;64.94
14882;BME280;7533;51.278;12.588;2023-04-06T05:15:25;100552.47;;;20.33;64.67
14882;BME280;7533;51.278;12.588;2023-04-06T05:20:34;100550.75;;;20.32;64.65
14882;BME280;7533;51.278;12.588;2023-04-06T05:25:37;100552.66;;;20.30;64.52
14882;BME280;7533;51.278;12.588;2023-04-06T05:30:50;100552.66;;;20.30;64.43
14882;BME280;7533;51.278;12.588;2023-04-06T05:35:53;100558.13;;;20.29;64.36
14882;BME280;7533;51.278;12.588;2023-04-06T05:40:57;100567.91;;;20.30;64.39
14882;BME280;7533;51.278;12.588;2023-04-06T05:46:06;100566.09;;;20.30;64.24
14882;BME280;7533;51.278;12.588;2023-04-06T05:51:09;100561.56;;;20.31;64.21
14882;BME280;7533;51.278;12.588;2023-04-06T05:56:19;100563.34;;;20.32;64.25
14882;BME280;7533;51.278;12.588;2023-04-06T06:01:23;100566.03;;;20.32;64.22
14882;BME280;7533;51.278;12.588;2023-04-06T06:06:28;100563.34;;;20.32;64.24
14882;BME280;7533;51.278;12.588;2023-04-06T06:11:50;100563.22;;;20.33;64.33
14882;BME280;7533;51.278;12.588;2023-04-06T06:16:59;100566.78;;;20.34;64.49
14882;BME280;7533;51.278;12.588;2023-04-06T06:22:03;100565.91;;;20.33;64.18
14882;BME280;7533;51.278;12.588;2023-04-06T06:27:10;100571.28;;;20.33;64.34
14882;BME280;7533;51.278;12.588;2023-04-06T06:32:15;100569.47;;;20.34;64.53
14882;BME280;7533;51.278;12.588;2023-04-06T06:37:22;100571.28;;;20.33;64.49
14882;BME280;7533;51.278;12.588;2023-04-06T06:42:26;100573.88;;;20.35;64.36
14882;BME280;7533;51.278;12.588;2023-04-06T06:47:48;100573.03;;;20.34;64.42
14882;BME280;7533;51.278;12.588;2023-04-06T06:52:55;100579.25;;;20.35;64.40
14882;BME280;7533;51.278;12.588;2023-04-06T06:57:59;100584.53;;;20.37;64.31
14882;BME280;7533;51.278;12.588;2023-04-06T07:03:03;100585.97;;;19.98;50.09
14882;BME280;7533;51.278;12.588;2023-04-06T07:08:07;100579.97;;;18.29;43.74
14882;BME280;7533;51.278;12.588;2023-04-06T07:13:10;100586.03;;;18.32;42.52
14882;BME280;7533;51.278;12.588;2023-04-06T07:18:15;100580.13;;;19.26;43.97
14882;BME280;7533;51.278;12.588;2023-04-06T07:23:19;100592.06;;;19.70;45.51
14882;BME280;7533;51.278;12.588;2023-04-06T07:28:22;100578.84;;;19.97;46.95
14882;BME280;7533;51.278;12.588;2023-04-06T07:33:27;100589.75;;;20.10;48.35
14882;BME280;7533;51.278;12.588;2023-04-06T07:38:32;100584.31;;;20.25;49.23
14882;BME280;7533;51.278;12.588;2023-04-06T07:43:35;100579.75;;;20.42;50.15
14882;BME280;7533;51.278;12.588;2023-04-06T07:48:40;100582.38;;;20.43;50.70
14882;BME280;7533;51.278;12.588;2023-04-06T07:53:43;100581.94;;;20.51;51.66
14882;BME280;7533;51.278;12.588;2023-04-06T07:58:46;100579.94;;;20.54;52.55
14882;BME280;7533;51.278;12.588;2023-04-06T08:03:51;100573.59;;;20.55;53.24
14882;BME280;7533;51.278;12.588;2023-04-06T08:08:57;100581.38;;;20.60;54.03
14882;BME280;7533;51.278;12.588;2023-04-06T08:14:00;100582.31;;;20.59;54.27
14882;BME280;7533;51.278;12.588;2023-04-06T08:23:21;100590.38;;;20.59;55.01
14882;BME280;7533;51.278;12.588;2023-04-06T08:28:24;100580.41;;;20.61;55.30
14882;BME280;7533;51.278;12.588;2023-04-06T08:33:28;100581.28;;;20.62;55.73
14882;BME280;7533;51.278;12.588;2023-04-06T08:38:32;100584.06;;;20.60;55.99
14882;BME280;7533;51.278;12.588;2023-04-06T08:43:42;100584.16;;;20.58;56.23
14882;BME280;7533;51.278;12.588;2023-04-06T08:48:46;100575.16;;;20.59;56.35
14882;BME280;7533;51.278;12.588;2023-04-06T08:53:53;100572.44;;;20.59;56.75
14882;BME280;7533;51.278;12.588;2023-04-06T08:58:57;100572.44;;;20.59;57.05
14882;BME280;7533;51.278;12.588;2023-04-06T09:04:01;100574.19;;;20.60;57.27
14882;BME280;7533;51.278;12.588;2023-04-06T09:09:11;100563.41;;;20.60;57.48
14882;BME280;7533;51.278;12.588;2023-04-06T09:14:14;100570.53;;;20.62;57.58
14882;BME280;7533;51.278;12.588;2023-04-06T09:19:18;100566.13;;;20.60;57.68
14882;BME280;7533;51.278;12.588;2023-04-06T09:24:22;100564.19;;;20.63;57.59
14882;BME280;7533;51.278;12.588;2023-04-06T09:29:27;100556.97;;;20.63;57.54
14882;BME280;7533;51.278;12.588;2023-04-06T09:34:30;100554.13;;;20.66;57.86
14882;BME280;7533;51.278;12.588;2023-04-06T09:39:35;100552.38;;;20.65;57.92
14882;BME280;7533;51.278;12.588;2023-04-06T09:44:37;100550.44;;;20.67;58.06
14882;BME280;7533;51.278;12.588;2023-04-06T09:49:40;100552.00;;;20.71;58.10
14882;BME280;7533;51.278;12.588;2023-04-06T09:54:47;100549.00;;;20.76;58.19
14882;BME280;7533;51.278;12.588;2023-04-06T09:59:58;100549.09;;;20.74;58.12
14882;BME280;7533;51.278;12.588;2023-04-06T10:05:09;100546.31;;;20.76;58.31
14882;BME280;7533;51.278;12.588;2023-04-06T10:10:14;100542.59;;;20.78;58.43
14882;BME280;7533;51.278;12.588;2023-04-06T10:15:17;100536.13;;;20.81;58.63
14882;BME280;7533;51.278;12.588;2023-04-06T10:20:29;100527.03;;;20.83;58.69
14882;BME280;7533;51.278;12.588;2023-04-06T10:25:35;100536.72;;;20.86;58.74
14882;BME280;7533;51.278;12.588;2023-04-06T10:30:42;100531.81;;;20.93;58.57
14882;BME280;7533;51.278;12.588;2023-04-06T10:35:45;100530.09;;;20.92;58.90
14882;BME280;7533;51.278;12.588;2023-04-06T10:40:50;100525.28;;;20.97;59.15
14882;BME280;7533;51.278;12.588;2023-04-06T10:45:55;100514.97;;;21.03;60.12
14882;BME280;7533;51.278;12.588;2023-04-06T10:50:59;100517.88;;;21.00;60.44
14882;BME280;7533;51.278;12.588;2023-04-06T10:56:04;100516.53;;;21.07;61.23
14882;BME280;7533;51.278;12.588;2023-04-06T11:01:11;100499.69;;;21.04;61.62
14882;BME280;7533;51.278;12.588;2023-04-06T11:06:19;100502.59;;;20.58;47.24
14882;BME280;7533;51.278;12.588;2023-04-06T11:11:25;100510.44;;;19.56;40.87
14882;BME280;7533;51.278;12.588;2023-04-06T11:16:30;100499.78;;;20.45;44.12
14882;BME280;7533;51.278;12.588;2023-04-06T11:21:35;100492.22;;;20.80;46.55
14882;BME280;7533;51.278;12.588;2023-04-06T11:26:41;100499.72;;;20.90;48.16
14882;BME280;7533;51.278;12.588;2023-04-06T11:31:47;100487.81;;;20.94;48.99
14882;BME280;7533;51.278;12.588;2023-04-06T11:36:54;100489.25;;;20.99;49.62
14882;BME280;7533;51.278;12.588;2023-04-06T11:42:01;100482.69;;;21.03;50.03
14882;BME280;7533;51.278;12.588;2023-04-06T11:47:10;100480.84;;;21.04;50.20
14882;BME280;7533;51.278;12.588;2023-04-06T11:52:18;100477.88;;;21.08;50.91
14882;BME280;7533;51.278;12.588;2023-04-06T11:57:23;100464.31;;;21.10;50.09
14882;BME280;7533;51.278;12.588;2023-04-06T12:02:27;100462.69;;;21.07;50.09
14882;BME280;7533;51.278;12.588;2023-04-06T12:07:30;100466.34;;;21.06;50.41
14882;BME280;7533;51.278;12.588;2023-04-06T12:12:34;100461.94;;;21.05;50.58
14882;BME280;7533;51.278;12.588;2023-04-06T12:17:37;100453.94;;;21.04;50.63
14882;BME280;7533;51.278;12.588;2023-04-06T12:22:41;100452.03;;;21.06;50.80
14882;BME280;7533;51.278;12.588;2023-04-06T12:27:45;100442.13;;;21.06;51.23
14882;BME280;7533;51.278;12.588;2023-04-06T12:32:50;100448.28;;;21.08;51.34
14882;BME280;7533;51.278;12.588;2023-04-06T12:37:53;100444.72;;;21.08;51.72
14882;BME280;7533;51.278;12.588;2023-04-06T12:42:57;100433.66;;;21.12;51.75
14882;BME280;7533;51.278;12.588;2023-04-06T12:48:00;100431.72;;;21.14;51.07
14882;BME280;7533;51.278;12.588;2023-04-06T12:53:03;100427.00;;;21.18;50.93
14882;BME280;7533;51.278;12.588;2023-04-06T12:58:08;100416.81;;;21.23;50.48
14882;BME280;7533;51.278;12.588;2023-04-06T13:03:11;100406.69;;;21.27;50.47
14882;BME280;7533;51.278;12.588;2023-04-06T13:08:14;100416.44;;;21.29;50.31
14882;BME280;7533;51.278;12.588;2023-04-06T13:13:23;100407.47;;;21.29;50.88
14882;BME280;7533;51.278;12.588;2023-04-06T13:18:26;100407.75;;;21.38;51.54
14882;BME280;7533;51.278;12.588;2023-04-06T13:23:29;100401.84;;;21.46;52.15
14882;BME280;7533;51.278;12.588;2023-04-06T13:28:34;100391.81;;;21.48;52.16
14882;BME280;7533;51.278;12.588;2023-04-06T13:33:39;100397.31;;;21.47;51.70
14882;BME280;7533;51.278;12.588;2023-04-06T13:38:43;100393.75;;;21.46;51.88
14882;BME280;7533;51.278;12.588;2023-04-06T13:43:48;100386.44;;;21.48;52.00
14882;BME280;7533;51.278;12.588;2023-04-06T13:48:51;100386.97;;;21.53;52.37
14882;BME280;7533;51.278;12.588;2023-04-06T13:53:54;100382.75;;;21.49;52.74
14882;BME280;7533;51.278;12.588;2023-04-06T13:58:58;100385.84;;;21.30;43.30
14882;BME280;7533;51.278;12.588;2023-04-06T14:04:01;100370.69;;;21.42;42.86
14882;BME280;7533;51.278;12.588;2023-04-06T14:09:04;100381.34;;;21.83;46.35
14882;BME280;7533;51.278;12.588;2023-04-06T14:14:08;100377.97;;;21.80;49.01
14882;BME280;7533;51.278;12.588;2023-04-06T14:19:11;100364.50;;;21.92;49.46
14882;BME280;7533;51.278;12.588;2023-04-06T14:24:15;100367.31;;;22.04;50.44
14882;BME280;7533;51.278;12.588;2023-04-06T14:29:20;100367.13;;;22.20;50.65
14882;BME280;7533;51.278;12.588;2023-04-06T14:34:23;100364.44;;;22.20;50.83
14882;BME280;7533;51.278;12.588;2023-04-06T14:39:26;100371.03;;;22.28;51.21
14882;BME280;7533;51.278;12.588;2023-04-06T14:44:32;100357.94;;;22.48;50.97
14882;BME280;7533;51.278;12.588;2023-04-06T14:49:35;100356.16;;;22.59;51.06
14882;BME280;7533;51.278;12.588;2023-04-06T14:54:38;100364.13;;;22.61;51.26
14882;BME280;7533;51.278;12.588;2023-04-06T14:59:43;100348.59;;;22.64;51.34
14882;BME280;7533;51.278;12.588;2023-04-06T15:04:45;100347.63;;;22.65;51.52
14882;BME280;7533;51.278;12.588;2023-04-06T15:09:48;100344.00;;;22.78;51.55
14882;BME280;7533;51.278;12.588;2023-04-06T15:14:53;100346.25;;;22.84;51.79
14882;BME280;7533;51.278;12.588;2023-04-06T15:19:56;100342.19;;;22.91;52.12
14882;BME280;7533;51.278;12.588;2023-04-06T15:24:59;100340.66;;;22.87;53.16
14882;BME280;7533;51.278;12.588;2023-04-06T15:30:04;100347.19;;;23.08;52.86
14882;BME280;7533;51.278;12.588;2023-04-06T15:35:11;100345.22;;;23.10;53.01
14882;BME280;7533;51.278;12.588;2023-04-06T15:40:14;100342.31;;;23.13;53.31
14882;BME280;7533;51.278;12.588;2023-04-06T15:45:18;100344.22;;;23.11;53.50
14882;BME280;7533;51.278;12.588;2023-04-06T15:50:21;100333.25;;;23.26;53.40
14882;BME280;7533;51.278;12.588;2023-04-06T15:55:25;100337.59;;;23.39;53.25
14882;BME280;7533;51.278;12.588;2023-04-06T16:00:29;100338.63;;;23.49;53.08
14882;BME280;7533;51.278;12.588;2023-04-06T16:05:32;100343.53;;;23.56;52.97
14882;BME280;7533;51.278;12.588;2023-04-06T16:10:54;100331.66;;;23.58;52.97
14882;BME280;7533;51.278;12.588;2023-04-06T16:15:58;100340.97;;;23.54;53.00
14882;BME280;7533;51.278;12.588;2023-04-06T16:21:01;100342.25;;;23.72;52.73
14882;BME280;7533;51.278;12.588;2023-04-06T16:26:10;100342.25;;;23.72;52.52
14882;BME280;7533;51.278;12.588;2023-04-06T16:31:18;100337.50;;;23.76;52.72
14882;BME280;7533;51.278;12.588;2023-04-06T16:36:23;100348.53;;;23.73;52.58
14882;BME280;7533;51.278;12.588;2023-04-06T16:41:26;100340.69;;;23.81;51.71
14882;BME280;7533;51.278;12.588;2023-04-06T16:46:31;100340.84;;;23.80;50.65
14882;BME280;7533;51.278;12.588;2023-04-06T16:51:34;100344.75;;;23.75;50.04
14882;BME280;7533;51.278;12.588;2023-04-06T16:56:37;100350.75;;;23.79;49.51
14882;BME280;7533;51.278;12.588;2023-04-06T17:01:41;100339.34;;;23.75;49.25
14882;BME280;7533;51.278;12.588;2023-04-06T17:06:44;100350.00;;;23.66;49.09
14882;BME280;7533;51.278;12.588;2023-04-06T17:11:47;100345.72;;;23.50;49.49
14882;BME280;7533;51.278;12.588;2023-04-06T17:16:51;100346.84;;;23.48;50.49
14882;BME280;7533;51.278;12.588;2023-04-06T17:21:55;100355.13;;;23.34;51.15
14882;BME280;7533;51.278;12.588;2023-04-06T17:26:58;100346.25;;;23.20;51.41
14882;BME280;7533;51.278;12.588;2023-04-06T17:32:03;100359.75;;;23.20;51.27
14882;BME280;7533;51.278;12.588;2023-04-06T17:37:06;100356.94;;;22.98;51.87
14882;BME280;7533;51.278;12.588;2023-04-06T17:42:09;100360.47;;;23.22;48.78
14882;BME280;7533;51.278;12.588;2023-04-06T17:47:13;100365.41;;;23.29;51.10
14882;BME280;7533;51.278;12.588;2023-04-06T17:52:16;100361.63;;;23.31;51.23
14882;BME280;7533;51.278;12.588;2023-04-06T17:57:19;100368.25;;;23.27;51.45
14882;BME280;7533;51.278;12.588;2023-04-06T18:02:24;100369.34;;;23.25;51.62
14882;BME280;7533;51.278;12.588;2023-04-06T18:07:27;100378.78;;;23.19;51.88
14882;BME280;7533;51.278;12.588;2023-04-06T18:12:30;100382.75;;;23.02;52.17
14882;BME280;7533;51.278;12.588;2023-04-06T18:17:34;100385.78;;;22.98;52.57
14882;BME280;7533;51.278;12.588;2023-04-06T18:22:37;100390.22;;;22.86;52.88
14882;BME280;7533;51.278;12.588;2023-04-06T18:27:40;100389.47;;;22.71;53.37
14882;BME280;7533;51.278;12.588;2023-04-06T18:32:44;100392.72;;;22.76;53.27
14882;BME280;7533;51.278;12.588;2023-04-06T18:37:48;100398.59;;;22.57;54.09
14882;BME280;7533;51.278;12.588;2023-04-06T18:42:51;100395.28;;;22.41;54.25
14882;BME280;7533;51.278;12.588;2023-04-06T18:47:55;100398.59;;;22.32;54.46
14882;BME280;7533;51.278;12.588;2023-04-06T18:52:58;100399.72;;;22.29;54.83
14882;BME280;7533;51.278;12.588;2023-04-06T18:58:01;100404.00;;;22.32;54.73
14882;BME280;7533;51.278;12.588;2023-04-06T19:03:05;100401.06;;;22.60;54.58
14882;BME280;7533;51.278;12.588;2023-04-06T19:08:09;100404.59;;;22.74;53.94
14882;BME280;7533;51.278;12.588;2023-04-06T19:13:12;100407.22;;;22.62;54.42
14882;BME280;7533;51.278;12.588;2023-04-06T19:18:17;100406.78;;;22.56;54.44
14882;BME280;7533;51.278;12.588;2023-04-06T19:23:20;100404.31;;;22.53;54.56
14882;BME280;7533;51.278;12.588;2023-04-06T19:28:23;100391.28;;;22.47;54.79
14882;BME280;7533;51.278;12.588;2023-04-06T19:33:29;100399.56;;;22.43;54.83
14882;BME280;7533;51.278;12.588;2023-04-06T19:38:33;100399.47;;;22.45;54.96
14882;BME280;7533;51.278;12.588;2023-04-06T19:43:36;100404.00;;;22.32;55.07
14882;BME280;7533;51.278;12.588;2023-04-06T19:48:41;100399.03;;;22.38;55.30
14882;BME280;7533;51.278;12.588;2023-04-06T19:53:44;100402.94;;;22.34;55.36
14882;BME280;7533;51.278;12.588;2023-04-06T19:58:46;100392.13;;;22.47;55.29
14882;BME280;7533;51.278;12.588;2023-04-06T20:03:50;100398.09;;;22.39;55.28
14882;BME280;7533;51.278;12.588;2023-04-06T20:08:54;100405.50;;;22.49;55.35
14882;BME280;7533;51.278;12.588;2023-04-06T20:13:56;100400.97;;;22.49;55.14
14882;BME280;7533;51.278;12.588;2023-04-06T20:19:01;100402.81;;;22.49;55.22
14882;BME280;7533;51.278;12.588;2023-04-06T20:24:04;100401.38;;;22.56;55.15
14882;BME280;7533;51.278;12.588;2023-04-06T20:29:07;100400.72;;;22.65;54.94
14882;BME280;7533;51.278;12.588;2023-04-06T20:34:11;100407.31;;;22.61;54.99
14882;BME280;7533;51.278;12.588;2023-04-06T20:39:14;100399.22;;;22.74;55.20
14882;BME280;7533;51.278;12.588;2023-04-06T20:44:17;100394.50;;;22.52;54.96
14882;BME280;7533;51.278;12.588;2023-04-06T20:49:23;100394.81;;;22.47;55.56
14882;BME280;7533;51.278;12.588;2023-04-06T20:54:26;100396.25;;;22.40;55.48
14882;BME280;7533;51.278;12.588;2023-04-06T20:59:29;100399.69;;;22.42;55.71
14882;BME280;7533;51.278;12.588;2023-04-06T21:04:34;100394.28;;;22.42;55.86
14882;BME280;7533;51.278;12.588;2023-04-06T21:09:38;100395.47;;;22.51;55.72
14882;BME280;7533;51.278;12.588;2023-04-06T21:14:41;100392.38;;;22.18;56.37
14882;BME280;7533;51.278;12.588;2023-04-06T21:19:45;100390.84;;;22.40;55.97
14882;BME280;7533;51.278;12.588;2023-04-06T21:24:48;100394.63;;;22.25;56.06
14882;BME280;7533;51.278;12.588;2023-04-06T21:29:51;100388.50;;;22.23;56.52
14882;BME280;7533;51.278;12.588;2023-04-06T21:34:55;100382.44;;;22.19;56.24
14882;BME280;7533;51.278;12.588;2023-04-06T21:39:58;100387.03;;;22.04;56.79
14882;BME280;7533;51.278;12.588;2023-04-06T21:45:03;100378.88;;;22.06;56.85
14882;BME280;7533;51.278;12.588;2023-04-06T21:50:08;100374.53;;;22.03;56.82
14882;BME280;7533;51.278;12.588;2023-04-06T21:55:11;100375.44;;;22.16;56.69
14882;BME280;7533;51.278;12.588;2023-04-06T22:00:15;100368.19;;;22.04;56.77
14882;BME280;7533;51.278;12.588;2023-04-06T22:05:20;100367.75;;;21.98;57.00
14882;BME280;7533;51.278;12.588;2023-04-06T22:10:24;100373.38;;;22.07;57.16
14882;BME280;7533;51.278;12.588;2023-04-06T22:15:26;100368.44;;;22.14;56.56
14882;BME280;7533;51.278;12.588;2023-04-06T22:20:31;100367.13;;;22.07;57.00
14882;BME280;7533;51.278;12.588;2023-04-06T22:25:34;100374.00;;;21.98;57.02
14882;BME280;7533;51.278;12.588;2023-04-06T22:30:37;100361.94;;;22.04;57.12
14882;BME280;7533;51.278;12.588;2023-04-06T22:35:42;100361.59;;;22.08;56.98
14882;BME280;7533;51.278;12.588;2023-04-06T22:40:45;100366.25;;;22.06;56.97
14882;BME280;7533;51.278;12.588;2023-04-06T22:45:47;100365.50;;;22.30;56.71
14882;BME280;7533;51.278;12.588;2023-04-06T22:50:51;100366.22;;;22.44;56.30
14882;BME280;7533;51.278;12.588;2023-04-06T22:55:54;100356.75;;;22.52;55.93
14882;BME280;7533;51.278;12.588;2023-04-06T23:00:57;100363.72;;;22.54;55.95
14882;BME280;7533;51.278;12.588;2023-04-06T23:06:01;100360.28;;;22.52;56.02
14882;BME280;7533;51.278;12.588;2023-04-06T23:11:04;100358.25;;;22.43;56.07
14882;BME280;7533;51.278;12.588;2023-04-06T23:16:07;100364.09;;;22.37;56.28
14882;BME280;7533;51.278;12.588;2023-04-06T23:21:12;100363.44;;;22.33;56.52
14882;BME280;7533;51.278;12.588;2023-04-06T23:26:15;100359.59;;;22.25;56.60
14882;BME280;7533;51.278;12.588;2023-04-06T23:31:18;100351.69;;;22.22;56.89
14882;BME280;7533;51.278;12.588;2023-04-06T23:36:22;100356.56;;;22.16;57.15
14882;BME280;7533;51.278;12.588;2023-04-06T23:41:28;100349.69;;;22.12;57.20
14882;BME280;7533;51.278;12.588;2023-04-06T23:46:31;100344.78;;;22.05;57.46
14882;BME280;7533;51.278;12.588;2023-04-06T23:51:35;100346.94;;;22.00;57.73
14882;BME280;7533;51.278;12.588;2023-04-06T23:56:38;100345.44;;;21.96;57.81
